sensor_id;sensor_type;location;lat;lon;timestamp;P1;durP1;ratioP1;P2;durP2;ratioP2
21754;SDS011;11039;50.028;19.938;2023-02-15T00:01:25;2.67;;;2.10;;
21754;SDS011;11039;50.028;19.938;2023-02-15T00:03:51;2.63;;;2.00;;
21754;SDS011;11039;50.028;19.938;2023-02-15T00:06:17;3.17;;;2.40;;
21754;SDS011;11039;50.028;19.938;2023-02-15T00:08:43;2.00;;;1.70;;
21754;SDS011;11039;50.028;19.938;2023-02-15T00:11:10;19.63;;;16.88;;
21754;SDS011;11039;50.028;19.938;2023-02-15T00:13:37;23.60;;;19.15;;
21754;SDS011;11039;50.028;19.938;2023-02-15T00:16:06;21.60;;;18.42;;
21754;SDS011;11039;50.028;19.938;2023-02-15T00:18:33;22.45;;;19.35;;
21754;SDS011;11039;50.028;19.938;2023-02-15T00:21:02;19.92;;;16.33;;
21754;SDS011;11039;50.028;19.938;2023-02-15T00:23:28;8.82;;;5.97;;
21754;SDS011;11039;50.028;19.938;2023-02-15T00:26:10;7.13;;;5.15;;
21754;SDS011;11039;50.028;19.938;2023-02-15T00:28:36;5.22;;;4.28;;
21754;SDS011;11039;50.028;19.938;2023-02-15T00:31:06;6.55;;;4.97;;
21754;SDS011;11039;50.028;19.938;2023-02-15T00:33:33;7.78;;;5.03;;
21754;SDS011;11039;50.028;19.938;2023-02-15T00:35:59;11.20;;;5.82;;
21754;SDS011;11039;50.028;19.938;2023-02-15T00:38:29;10.30;;;3.78;;
21754;SDS011;11039;50.028;19.938;2023-02-15T00:40:56;7.20;;;3.60;;
21754;SDS011;11039;50.028;19.938;2023-02-15T00:43:23;8.70;;;4.00;;
21754;SDS011;11039;50.028;19.938;2023-02-15T00:45:49;5.00;;;3.22;;
21754;SDS011;11039;50.028;19.938;2023-02-15T00:48:15;5.20;;;2.70;;
21754;SDS011;11039;50.028;19.938;2023-02-15T00:50:41;3.95;;;2.30;;
21754;SDS011;11039;50.028;19.938;2023-02-15T00:53:07;3.08;;;2.05;;
21754;SDS011;11039;50.028;19.938;2023-02-15T00:55:33;2.83;;;2.15;;
21754;SDS011;11039;50.028;19.938;2023-02-15T00:57:59;4.15;;;2.30;;
21754;SDS011;11039;50.028;19.938;2023-02-15T01:00:25;2.55;;;1.98;;
21754;SDS011;11039;50.028;19.938;2023-02-15T01:02:51;2.33;;;1.80;;
21754;SDS011;11039;50.028;19.938;2023-02-15T01:05:17;2.42;;;1.80;;
21754;SDS011;11039;50.028;19.938;2023-02-15T01:07:43;2.15;;;1.55;;
21754;SDS011;11039;50.028;19.938;2023-02-15T01:10:09;2.65;;;1.67;;
21754;SDS011;11039;50.028;19.938;2023-02-15T01:12:35;1.90;;;1.60;;
21754;SDS011;11039;50.028;19.938;2023-02-15T01:15:02;3.58;;;1.95;;
21754;SDS011;11039;50.028;19.938;2023-02-15T01:17:28;2.22;;;1.50;;
21754;SDS011;11039;50.028;19.938;2023-02-15T01:19:54;3.85;;;2.00;;
21754;SDS011;11039;50.028;19.938;2023-02-15T01:22:20;1.80;;;1.30;;
21754;SDS011;11039;50.028;19.938;2023-02-15T01:24:48;1.98;;;1.58;;
21754;SDS011;11039;50.028;19.938;2023-02-15T01:27:15;2.88;;;1.90;;
21754;SDS011;11039;50.028;19.938;2023-02-15T01:29:41;2.10;;;1.58;;
21754;SDS011;11039;50.028;19.938;2023-02-15T01:32:07;1.80;;;1.60;;
21754;SDS011;11039;50.028;19.938;2023-02-15T01:34:33;1.33;;;1.20;;
21754;SDS011;11039;50.028;19.938;2023-02-15T01:36:59;1.70;;;1.50;;
21754;SDS011;11039;50.028;19.938;2023-02-15T01:39:25;1.63;;;1.20;;
21754;SDS011;11039;50.028;19.938;2023-02-15T01:41:51;1.65;;;1.30;;
21754;SDS011;11039;50.028;19.938;2023-02-15T01:47:02;1.77;;;1.20;;
21754;SDS011;11039;50.028;19.938;2023-02-15T01:49:28;1.80;;;1.50;;
21754;SDS011;11039;50.028;19.938;2023-02-15T01:51:54;1.42;;;1.20;;
21754;SDS011;11039;50.028;19.938;2023-02-15T01:54:21;1.50;;;1.20;;
21754;SDS011;11039;50.028;19.938;2023-02-15T01:56:49;1.63;;;1.40;;
21754;SDS011;11039;50.028;19.938;2023-02-15T01:59:18;1.52;;;1.17;;
21754;SDS011;11039;50.028;19.938;2023-02-15T02:01:44;2.58;;;1.40;;
21754;SDS011;11039;50.028;19.938;2023-02-15T02:04:57;1.50;;;1.30;;
21754;SDS011;11039;50.028;19.938;2023-02-15T02:06:57;1.83;;;1.30;;
21754;SDS011;11039;50.028;19.938;2023-02-15T02:09:24;1.42;;;1.17;;
21754;SDS011;11039;50.028;19.938;2023-02-15T02:11:50;1.30;;;1.20;;
21754;SDS011;11039;50.028;19.938;2023-02-15T02:14:19;10.00;;;1.50;;
21754;SDS011;11039;50.028;19.938;2023-02-15T02:17:31;1.30;;;1.20;;
21754;SDS011;11039;50.028;19.938;2023-02-15T02:19:47;1.42;;;1.05;;
21754;SDS011;11039;50.028;19.938;2023-02-15T02:38:08;1.67;;;1.30;;
21754;SDS011;11039;50.028;19.938;2023-02-15T02:40:36;1.70;;;1.40;;
21754;SDS011;11039;50.028;19.938;2023-02-15T02:43:13;1.75;;;1.30;;
21754;SDS011;11039;50.028;19.938;2023-02-15T02:45:45;1.58;;;1.38;;
21754;SDS011;11039;50.028;19.938;2023-02-15T02:48:15;1.92;;;1.30;;
21754;SDS011;11039;50.028;19.938;2023-02-15T02:50:42;1.58;;;1.20;;
21754;SDS011;11039;50.028;19.938;2023-02-15T02:53:09;1.25;;;0.95;;
21754;SDS011;11039;50.028;19.938;2023-02-15T02:58:10;1.10;;;1.00;;
21754;SDS011;11039;50.028;19.938;2023-02-15T03:00:42;1.30;;;1.10;;
21754;SDS011;11039;50.028;19.938;2023-02-15T03:03:13;1.38;;;1.10;;
21754;SDS011;11039;50.028;19.938;2023-02-15T03:05:41;1.23;;;1.10;;
21754;SDS011;11039;50.028;19.938;2023-02-15T03:08:09;2.00;;;1.35;;
21754;SDS011;11039;50.028;19.938;2023-02-15T03:10:37;1.30;;;1.00;;
21754;SDS011;11039;50.028;19.938;2023-02-15T03:13:05;1.88;;;1.35;;
21754;SDS011;11039;50.028;19.938;2023-02-15T03:15:34;2.67;;;1.20;;
21754;SDS011;11039;50.028;19.938;2023-02-15T03:18:20;1.50;;;1.02;;
21754;SDS011;11039;50.028;19.938;2023-02-15T03:20:47;1.40;;;1.10;;
21754;SDS011;11039;50.028;19.938;2023-02-15T03:23:14;1.50;;;1.20;;
21754;SDS011;11039;50.028;19.938;2023-02-15T03:25:50;1.38;;;1.00;;
21754;SDS011;11039;50.028;19.938;2023-02-15T03:28:19;1.42;;;0.90;;
21754;SDS011;11039;50.028;19.938;2023-02-15T03:30:47;1.63;;;1.20;;
21754;SDS011;11039;50.028;19.938;2023-02-15T03:33:14;1.45;;;1.10;;
21754;SDS011;11039;50.028;19.938;2023-02-15T03:38:10;1.80;;;1.30;;
21754;SDS011;11039;50.028;19.938;2023-02-15T03:40:38;1.48;;;1.00;;
21754;SDS011;11039;50.028;19.938;2023-02-15T03:46:07;1.17;;;1.00;;
21754;SDS011;11039;50.028;19.938;2023-02-15T03:48:39;3.53;;;1.02;;
21754;SDS011;11039;50.028;19.938;2023-02-15T03:51:08;0.85;;;0.80;;
21754;SDS011;11039;50.028;19.938;2023-02-15T03:53:54;1.20;;;1.00;;
21754;SDS011;11039;50.028;19.938;2023-02-15T03:56:20;1.80;;;1.20;;
21754;SDS011;11039;50.028;19.938;2023-02-15T03:58:46;1.73;;;1.10;;
21754;SDS011;11039;50.028;19.938;2023-02-15T04:01:36;1.33;;;1.20;;
21754;SDS011;11039;50.028;19.938;2023-02-15T04:04:21;1.10;;;1.00;;
21754;SDS011;11039;50.028;19.938;2023-02-15T04:06:48;1.17;;;1.08;;
21754;SDS011;11039;50.028;19.938;2023-02-15T04:09:14;1.17;;;1.08;;
21754;SDS011;11039;50.028;19.938;2023-02-15T04:11:59;1.35;;;1.05;;
21754;SDS011;11039;50.028;19.938;2023-02-15T04:14:25;1.40;;;1.20;;
21754;SDS011;11039;50.028;19.938;2023-02-15T04:17:10;1.48;;;1.10;;
21754;SDS011;11039;50.028;19.938;2023-02-15T04:19:36;1.55;;;1.20;;
21754;SDS011;11039;50.028;19.938;2023-02-15T04:22:21;1.30;;;1.00;;
21754;SDS011;11039;50.028;19.938;2023-02-15T04:25:05;1.50;;;1.20;;
21754;SDS011;11039;50.028;19.938;2023-02-15T04:27:38;1.60;;;1.30;;
21754;SDS011;11039;50.028;19.938;2023-02-15T04:30:04;1.40;;;1.30;;
21754;SDS011;11039;50.028;19.938;2023-02-15T04:32:31;1.50;;;1.20;;
21754;SDS011;11039;50.028;19.938;2023-02-15T04:34:57;2.13;;;1.23;;
21754;SDS011;11039;50.028;19.938;2023-02-15T04:37:23;1.55;;;1.40;;
21754;SDS011;11039;50.028;19.938;2023-02-15T04:39:49;1.33;;;1.13;;
21754;SDS011;11039;50.028;19.938;2023-02-15T04:42:15;1.55;;;1.38;;
21754;SDS011;11039;50.028;19.938;2023-02-15T04:44:41;1.50;;;1.40;;
21754;SDS011;11039;50.028;19.938;2023-02-15T04:47:07;1.55;;;1.10;;
21754;SDS011;11039;50.028;19.938;2023-02-15T04:49:33;2.08;;;1.25;;
21754;SDS011;11039;50.028;19.938;2023-02-15T04:51:59;1.60;;;1.25;;
21754;SDS011;11039;50.028;19.938;2023-02-15T04:54:26;2.10;;;1.45;;
21754;SDS011;11039;50.028;19.938;2023-02-15T04:56:52;1.58;;;1.38;;
21754;SDS011;11039;50.028;19.938;2023-02-15T04:59:18;1.83;;;1.45;;
21754;SDS011;11039;50.028;19.938;2023-02-15T05:01:44;2.00;;;1.60;;
21754;SDS011;11039;50.028;19.938;2023-02-15T05:04:10;1.92;;;1.60;;
21754;SDS011;11039;50.028;19.938;2023-02-15T05:06:36;2.20;;;1.60;;
21754;SDS011;11039;50.028;19.938;2023-02-15T05:09:02;1.33;;;1.23;;
21754;SDS011;11039;50.028;19.938;2023-02-15T05:11:28;2.45;;;1.60;;
21754;SDS011;11039;50.028;19.938;2023-02-15T05:13:54;1.80;;;1.38;;
21754;SDS011;11039;50.028;19.938;2023-02-15T05:16:20;2.10;;;1.40;;
21754;SDS011;11039;50.028;19.938;2023-02-15T05:18:46;1.70;;;1.40;;
21754;SDS011;11039;50.028;19.938;2023-02-15T05:21:12;2.08;;;1.63;;
21754;SDS011;11039;50.028;19.938;2023-02-15T05:23:38;1.77;;;1.40;;
21754;SDS011;11039;50.028;19.938;2023-02-15T05:26:05;1.83;;;1.48;;
21754;SDS011;11039;50.028;19.938;2023-02-15T05:28:49;1.48;;;1.33;;
21754;SDS011;11039;50.028;19.938;2023-02-15T05:31:19;1.70;;;1.50;;
21754;SDS011;11039;50.028;19.938;2023-02-15T05:33:45;1.80;;;1.30;;
21754;SDS011;11039;50.028;19.938;2023-02-15T05:36:11;2.13;;;1.75;;
21754;SDS011;11039;50.028;19.938;2023-02-15T05:38:38;1.83;;;1.63;;
21754;SDS011;11039;50.028;19.938;2023-02-15T05:41:08;2.25;;;1.60;;
21754;SDS011;11039;50.028;19.938;2023-02-15T05:43:34;1.85;;;1.60;;
21754;SDS011;11039;50.028;19.938;2023-02-15T05:46:00;1.60;;;1.50;;
21754;SDS011;11039;50.028;19.938;2023-02-15T05:48:27;1.92;;;1.40;;
21754;SDS011;11039;50.028;19.938;2023-02-15T05:50:56;1.67;;;1.48;;
21754;SDS011;11039;50.028;19.938;2023-02-15T05:53:23;1.65;;;1.40;;
21754;SDS011;11039;50.028;19.938;2023-02-15T05:55:49;1.63;;;1.50;;
21754;SDS011;11039;50.028;19.938;2023-02-15T05:58:15;1.38;;;1.27;;
21754;SDS011;11039;50.028;19.938;2023-02-15T06:00:41;1.38;;;1.27;;
21754;SDS011;11039;50.028;19.938;2023-02-15T06:03:07;1.85;;;1.30;;
21754;SDS011;11039;50.028;19.938;2023-02-15T06:05:33;1.55;;;1.45;;
21754;SDS011;11039;50.028;19.938;2023-02-15T06:07:59;1.90;;;1.50;;
21754;SDS011;11039;50.028;19.938;2023-02-15T06:10:25;1.55;;;1.45;;
21754;SDS011;11039;50.028;19.938;2023-02-15T06:12:51;1.50;;;1.20;;
21754;SDS011;11039;50.028;19.938;2023-02-15T06:15:17;1.52;;;1.40;;
21754;SDS011;11039;50.028;19.938;2023-02-15T06:17:43;2.30;;;1.65;;
21754;SDS011;11039;50.028;19.938;2023-02-15T06:20:09;1.85;;;1.20;;
21754;SDS011;11039;50.028;19.938;2023-02-15T06:22:36;1.80;;;1.63;;
21754;SDS011;11039;50.028;19.938;2023-02-15T06:25:02;1.80;;;1.60;;
21754;SDS011;11039;50.028;19.938;2023-02-15T06:27:28;1.95;;;1.48;;
21754;SDS011;11039;50.028;19.938;2023-02-15T06:29:54;2.03;;;1.55;;
21754;SDS011;11039;50.028;19.938;2023-02-15T06:32:20;2.08;;;1.70;;
21754;SDS011;11039;50.028;19.938;2023-02-15T06:34:46;1.83;;;1.30;;
21754;SDS011;11039;50.028;19.938;2023-02-15T06:37:12;1.40;;;1.30;;
21754;SDS011;11039;50.028;19.938;2023-02-15T06:39:38;1.85;;;1.20;;
21754;SDS011;11039;50.028;19.938;2023-02-15T06:42:04;2.08;;;1.58;;
21754;SDS011;11039;50.028;19.938;2023-02-15T06:44:30;1.60;;;1.23;;
21754;SDS011;11039;50.028;19.938;2023-02-15T06:46:56;2.00;;;1.70;;
21754;SDS011;11039;50.028;19.938;2023-02-15T06:49:22;2.00;;;1.70;;
21754;SDS011;11039;50.028;19.938;2023-02-15T06:51:48;1.70;;;1.60;;
21754;SDS011;11039;50.028;19.938;2023-02-15T06:54:14;1.85;;;1.48;;
21754;SDS011;11039;50.028;19.938;2023-02-15T06:56:40;1.83;;;1.52;;
21754;SDS011;11039;50.028;19.938;2023-02-15T06:59:08;1.83;;;1.60;;
21754;SDS011;11039;50.028;19.938;2023-02-15T07:01:34;2.33;;;1.60;;
21754;SDS011;11039;50.028;19.938;2023-02-15T07:04:02;2.30;;;1.75;;
21754;SDS011;11039;50.028;19.938;2023-02-15T07:06:30;1.88;;;1.55;;
21754;SDS011;11039;50.028;19.938;2023-02-15T07:08:57;1.70;;;1.50;;
21754;SDS011;11039;50.028;19.938;2023-02-15T07:11:24;1.60;;;1.50;;
21754;SDS011;11039;50.028;19.938;2023-02-15T07:14:09;2.83;;;1.60;;
21754;SDS011;11039;50.028;19.938;2023-02-15T07:16:35;1.83;;;1.67;;
21754;SDS011;11039;50.028;19.938;2023-02-15T07:19:01;1.88;;;1.50;;
21754;SDS011;11039;50.028;19.938;2023-02-15T07:21:27;1.60;;;1.50;;
21754;SDS011;11039;50.028;19.938;2023-02-15T07:23:55;2.95;;;1.65;;
21754;SDS011;11039;50.028;19.938;2023-02-15T07:26:22;1.50;;;1.40;;
21754;SDS011;11039;50.028;19.938;2023-02-15T07:28:48;2.10;;;1.90;;
21754;SDS011;11039;50.028;19.938;2023-02-15T07:31:14;2.25;;;1.85;;
21754;SDS011;11039;50.028;19.938;2023-02-15T07:33:40;1.80;;;1.60;;
21754;SDS011;11039;50.028;19.938;2023-02-15T07:36:06;2.13;;;1.55;;
21754;SDS011;11039;50.028;19.938;2023-02-15T07:38:35;1.98;;;1.52;;
21754;SDS011;11039;50.028;19.938;2023-02-15T07:41:02;3.00;;;1.60;;
21754;SDS011;11039;50.028;19.938;2023-02-15T07:43:28;1.83;;;1.65;;
21754;SDS011;11039;50.028;19.938;2023-02-15T07:45:58;1.88;;;1.70;;
21754;SDS011;11039;50.028;19.938;2023-02-15T07:48:25;2.38;;;1.98;;
21754;SDS011;11039;50.028;19.938;2023-02-15T07:50:51;2.28;;;1.60;;
21754;SDS011;11039;50.028;19.938;2023-02-15T07:53:17;2.45;;;1.90;;
21754;SDS011;11039;50.028;19.938;2023-02-15T07:55:43;2.33;;;1.60;;
21754;SDS011;11039;50.028;19.938;2023-02-15T07:58:09;1.88;;;1.55;;
21754;SDS011;11039;50.028;19.938;2023-02-15T08:00:36;1.40;;;1.30;;
21754;SDS011;11039;50.028;19.938;2023-02-15T08:03:22;1.83;;;1.50;;
21754;SDS011;11039;50.028;19.938;2023-02-15T08:05:49;2.00;;;1.80;;
21754;SDS011;11039;50.028;19.938;2023-02-15T08:08:15;1.63;;;1.50;;
21754;SDS011;11039;50.028;19.938;2023-02-15T08:11:00;2.33;;;1.65;;
21754;SDS011;11039;50.028;19.938;2023-02-15T08:13:45;2.05;;;1.77;;
21754;SDS011;11039;50.028;19.938;2023-02-15T08:16:24;1.52;;;1.42;;
21754;SDS011;11039;50.028;19.938;2023-02-15T08:18:51;2.03;;;1.60;;
21754;SDS011;11039;50.028;19.938;2023-02-15T08:21:18;1.50;;;1.40;;
21754;SDS011;11039;50.028;19.938;2023-02-15T08:23:44;1.63;;;1.45;;
21754;SDS011;11039;50.028;19.938;2023-02-15T08:26:10;1.52;;;1.42;;
21754;SDS011;11039;50.028;19.938;2023-02-15T08:28:36;2.17;;;1.50;;
21754;SDS011;11039;50.028;19.938;2023-02-15T08:31:06;1.85;;;1.67;;
21754;SDS011;11039;50.028;19.938;2023-02-15T08:33:32;1.98;;;1.60;;
21754;SDS011;11039;50.028;19.938;2023-02-15T08:36:02;1.77;;;1.60;;
21754;SDS011;11039;50.028;19.938;2023-02-15T08:38:28;1.58;;;1.48;;
21754;SDS011;11039;50.028;19.938;2023-02-15T08:40:54;2.30;;;1.92;;
21754;SDS011;11039;50.028;19.938;2023-02-15T08:43:20;1.63;;;1.50;;
21754;SDS011;11039;50.028;19.938;2023-02-15T08:45:47;1.83;;;1.65;;
21754;SDS011;11039;50.028;19.938;2023-02-15T08:48:13;2.05;;;1.70;;
21754;SDS011;11039;50.028;19.938;2023-02-15T08:50:39;2.08;;;1.60;;
21754;SDS011;11039;50.028;19.938;2023-02-15T08:53:05;1.45;;;1.35;;
21754;SDS011;11039;50.028;19.938;2023-02-15T08:55:31;1.65;;;1.55;;
21754;SDS011;11039;50.028;19.938;2023-02-15T08:57:57;2.00;;;1.60;;
21754;SDS011;11039;50.028;19.938;2023-02-15T09:00:23;1.50;;;1.40;;
21754;SDS011;11039;50.028;19.938;2023-02-15T09:02:50;1.60;;;1.30;;
21754;SDS011;11039;50.028;19.938;2023-02-15T09:05:17;1.80;;;1.42;;
21754;SDS011;11039;50.028;19.938;2023-02-15T09:07:43;1.60;;;1.48;;
21754;SDS011;11039;50.028;19.938;2023-02-15T09:10:09;1.73;;;1.40;;
21754;SDS011;11039;50.028;19.938;2023-02-15T09:12:35;1.45;;;1.30;;
21754;SDS011;11039;50.028;19.938;2023-02-15T09:15:01;1.92;;;1.60;;
21754;SDS011;11039;50.028;19.938;2023-02-15T09:17:27;1.80;;;1.60;;
21754;SDS011;11039;50.028;19.938;2023-02-15T09:19:53;1.73;;;1.50;;
21754;SDS011;11039;50.028;19.938;2023-02-15T09:22:19;1.67;;;1.52;;
21754;SDS011;11039;50.028;19.938;2023-02-15T09:24:45;1.73;;;1.50;;
21754;SDS011;11039;50.028;19.938;2023-02-15T09:27:11;1.67;;;1.40;;
21754;SDS011;11039;50.028;19.938;2023-02-15T09:29:37;1.95;;;1.60;;
21754;SDS011;11039;50.028;19.938;2023-02-15T09:32:04;1.63;;;1.50;;
21754;SDS011;11039;50.028;19.938;2023-02-15T09:34:30;1.40;;;1.30;;
21754;SDS011;11039;50.028;19.938;2023-02-15T09:36:56;1.48;;;1.20;;
21754;SDS011;11039;50.028;19.938;2023-02-15T09:39:23;2.20;;;1.70;;
21754;SDS011;11039;50.028;19.938;2023-02-15T09:44:38;1.92;;;1.58;;
21754;SDS011;11039;50.028;19.938;2023-02-15T09:47:22;1.52;;;1.38;;
21754;SDS011;11039;50.028;19.938;2023-02-15T10:02:59;17.13;;;13.07;;
21754;SDS011;11039;50.028;19.938;2023-02-15T10:05:40;15.73;;;13.75;;
21754;SDS011;11039;50.028;19.938;2023-02-15T10:10:48;16.73;;;14.63;;
21754;SDS011;11039;50.028;19.938;2023-02-15T10:13:41;15.20;;;13.60;;
21754;SDS011;11039;50.028;19.938;2023-02-15T10:21:26;19.55;;;16.95;;
21754;SDS011;11039;50.028;19.938;2023-02-15T10:26:22;18.73;;;15.68;;
21754;SDS011;11039;50.028;19.938;2023-02-15T10:28:51;16.58;;;14.30;;
21754;SDS011;11039;50.028;19.938;2023-02-15T10:31:22;8.45;;;6.25;;
21754;SDS011;11039;50.028;19.938;2023-02-15T10:33:52;6.47;;;4.65;;
21754;SDS011;11039;50.028;19.938;2023-02-15T10:36:28;7.40;;;5.60;;
21754;SDS011;11039;50.028;19.938;2023-02-15T10:43:59;14.50;;;8.77;;
21754;SDS011;11039;50.028;19.938;2023-02-15T10:46:40;14.20;;;9.13;;
21754;SDS011;11039;50.028;19.938;2023-02-15T10:49:20;13.20;;;7.28;;
21754;SDS011;11039;50.028;19.938;2023-02-15T10:57:02;9.27;;;6.45;;
21754;SDS011;11039;50.028;19.938;2023-02-15T11:07:16;7.05;;;5.10;;
21754;SDS011;11039;50.028;19.938;2023-02-15T11:09:44;8.15;;;6.07;;
21754;SDS011;11039;50.028;19.938;2023-02-15T11:12:13;7.82;;;5.35;;
21754;SDS011;11039;50.028;19.938;2023-02-15T11:14:44;8.90;;;6.20;;
21754;SDS011;11039;50.028;19.938;2023-02-15T11:17:12;7.10;;;4.95;;
21754;SDS011;11039;50.028;19.938;2023-02-15T11:22:27;7.75;;;5.18;;
21754;SDS011;11039;50.028;19.938;2023-02-15T11:24:54;5.15;;;4.20;;
21754;SDS011;11039;50.028;19.938;2023-02-15T11:27:23;9.95;;;4.40;;
21754;SDS011;11039;50.028;19.938;2023-02-15T11:32:33;4.63;;;3.15;;
21754;SDS011;11039;50.028;19.938;2023-02-15T11:35:10;5.15;;;3.40;;
21754;SDS011;11039;50.028;19.938;2023-02-15T11:37:47;6.10;;;4.03;;
21754;SDS011;11039;50.028;19.938;2023-02-15T11:40:16;5.20;;;3.90;;
21754;SDS011;11039;50.028;19.938;2023-02-15T11:42:43;14.93;;;5.80;;
21754;SDS011;11039;50.028;19.938;2023-02-15T11:45:17;12.80;;;8.15;;
21754;SDS011;11039;50.028;19.938;2023-02-15T11:47:46;12.65;;;9.40;;
21754;SDS011;11039;50.028;19.938;2023-02-15T11:50:15;14.43;;;9.45;;
21754;SDS011;11039;50.028;19.938;2023-02-15T11:52:43;11.20;;;9.82;;
21754;SDS011;11039;50.028;19.938;2023-02-15T11:55:13;15.98;;;12.20;;
21754;SDS011;11039;50.028;19.938;2023-02-15T11:57:42;15.25;;;12.13;;
21754;SDS011;11039;50.028;19.938;2023-02-15T12:00:14;14.13;;;12.15;;
21754;SDS011;11039;50.028;19.938;2023-02-15T12:02:45;15.82;;;12.60;;
21754;SDS011;11039;50.028;19.938;2023-02-15T12:05:16;15.43;;;11.82;;
21754;SDS011;11039;50.028;19.938;2023-02-15T12:10:22;12.98;;;11.35;;
21754;SDS011;11039;50.028;19.938;2023-02-15T12:13:08;14.23;;;12.07;;
21754;SDS011;11039;50.028;19.938;2023-02-15T12:15:34;15.45;;;11.40;;
21754;SDS011;11039;50.028;19.938;2023-02-15T12:18:01;14.63;;;12.15;;
21754;SDS011;11039;50.028;19.938;2023-02-15T12:20:31;15.13;;;11.23;;
21754;SDS011;11039;50.028;19.938;2023-02-15T12:23:02;15.00;;;12.05;;
21754;SDS011;11039;50.028;19.938;2023-02-15T12:25:41;13.55;;;10.98;;
21754;SDS011;11039;50.028;19.938;2023-02-15T12:31:07;14.68;;;11.70;;
21754;SDS011;11039;50.028;19.938;2023-02-15T12:33:36;13.27;;;10.70;;
21754;SDS011;11039;50.028;19.938;2023-02-15T12:36:10;16.15;;;12.55;;
21754;SDS011;11039;50.028;19.938;2023-02-15T12:38:37;16.80;;;11.93;;
21754;SDS011;11039;50.028;19.938;2023-02-15T12:41:04;14.48;;;11.00;;
21754;SDS011;11039;50.028;19.938;2023-02-15T12:43:35;12.32;;;10.93;;
21754;SDS011;11039;50.028;19.938;2023-02-15T12:46:13;13.38;;;10.77;;
21754;SDS011;11039;50.028;19.938;2023-02-15T12:48:39;14.98;;;10.98;;
21754;SDS011;11039;50.028;19.938;2023-02-15T12:51:07;13.75;;;11.43;;
21754;SDS011;11039;50.028;19.938;2023-02-15T12:53:35;14.45;;;11.70;;
21754;SDS011;11039;50.028;19.938;2023-02-15T12:56:05;13.48;;;9.57;;
21754;SDS011;11039;50.028;19.938;2023-02-15T12:58:32;14.10;;;10.88;;
21754;SDS011;11039;50.028;19.938;2023-02-15T13:03:34;13.85;;;11.02;;
21754;SDS011;11039;50.028;19.938;2023-02-15T13:06:01;14.00;;;10.75;;
21754;SDS011;11039;50.028;19.938;2023-02-15T13:08:33;12.85;;;10.85;;
21754;SDS011;11039;50.028;19.938;2023-02-15T13:11:03;15.20;;;12.20;;
21754;SDS011;11039;50.028;19.938;2023-02-15T13:13:32;13.45;;;10.68;;
21754;SDS011;11039;50.028;19.938;2023-02-15T13:16:01;13.77;;;10.75;;
21754;SDS011;11039;50.028;19.938;2023-02-15T13:18:32;15.07;;;11.20;;
21754;SDS011;11039;50.028;19.938;2023-02-15T13:21:09;13.27;;;10.40;;
21754;SDS011;11039;50.028;19.938;2023-02-15T13:23:36;13.35;;;10.48;;
21754;SDS011;11039;50.028;19.938;2023-02-15T13:26:04;16.10;;;11.02;;
21754;SDS011;11039;50.028;19.938;2023-02-15T13:28:37;14.43;;;11.23;;
21754;SDS011;11039;50.028;19.938;2023-02-15T13:31:08;14.77;;;10.20;;
21754;SDS011;11039;50.028;19.938;2023-02-15T13:33:37;13.63;;;10.35;;
21754;SDS011;11039;50.028;19.938;2023-02-15T13:38:44;13.63;;;11.13;;
21754;SDS011;11039;50.028;19.938;2023-02-15T13:41:33;16.88;;;10.98;;
21754;SDS011;11039;50.028;19.938;2023-02-15T13:44:08;12.55;;;10.75;;
21754;SDS011;11039;50.028;19.938;2023-02-15T13:49:09;13.48;;;10.48;;
21754;SDS011;11039;50.028;19.938;2023-02-15T13:54:08;14.52;;;11.80;;
21754;SDS011;11039;50.028;19.938;2023-02-15T14:01:56;13.02;;;11.13;;
21754;SDS011;11039;50.028;19.938;2023-02-15T14:12:18;11.65;;;9.80;;
21754;SDS011;11039;50.028;19.938;2023-02-15T14:17:15;14.00;;;10.35;;
21754;SDS011;11039;50.028;19.938;2023-02-15T14:19:57;15.35;;;10.02;;
21754;SDS011;11039;50.028;19.938;2023-02-15T14:25:14;12.50;;;10.40;;
21754;SDS011;11039;50.028;19.938;2023-02-15T14:27:45;11.38;;;9.68;;
21754;SDS011;11039;50.028;19.938;2023-02-15T14:30:18;11.50;;;9.38;;
21754;SDS011;11039;50.028;19.938;2023-02-15T14:32:47;13.25;;;10.40;;
21754;SDS011;11039;50.028;19.938;2023-02-15T14:35:18;12.55;;;9.90;;
21754;SDS011;11039;50.028;19.938;2023-02-15T14:40:54;11.88;;;9.35;;
21754;SDS011;11039;50.028;19.938;2023-02-15T14:45:56;13.45;;;9.77;;
21754;SDS011;11039;50.028;19.938;2023-02-15T14:48:31;13.75;;;10.32;;
21754;SDS011;11039;50.028;19.938;2023-02-15T14:50:58;22.40;;;17.98;;
21754;SDS011;11039;50.028;19.938;2023-02-15T14:53:32;26.15;;;20.67;;
21754;SDS011;11039;50.028;19.938;2023-02-15T14:58:54;25.95;;;21.63;;
21754;SDS011;11039;50.028;19.938;2023-02-15T15:01:25;26.50;;;20.98;;
21754;SDS011;11039;50.028;19.938;2023-02-15T15:03:53;25.80;;;19.15;;
21754;SDS011;11039;50.028;19.938;2023-02-15T15:06:25;25.33;;;19.10;;
21754;SDS011;11039;50.028;19.938;2023-02-15T15:08:53;24.60;;;19.65;;
21754;SDS011;11039;50.028;19.938;2023-02-15T15:13:57;26.02;;;18.73;;
21754;SDS011;11039;50.028;19.938;2023-02-15T15:16:31;23.63;;;18.58;;
21754;SDS011;11039;50.028;19.938;2023-02-15T15:18:57;25.05;;;19.48;;
21754;SDS011;11039;50.028;19.938;2023-02-15T15:24:08;25.73;;;20.10;;
21754;SDS011;11039;50.028;19.938;2023-02-15T15:26:35;23.23;;;19.50;;
21754;SDS011;11039;50.028;19.938;2023-02-15T15:29:05;23.15;;;18.90;;
21754;SDS011;11039;50.028;19.938;2023-02-15T15:41:41;26.27;;;19.08;;
21754;SDS011;11039;50.028;19.938;2023-02-15T15:44:19;24.77;;;20.10;;
21754;SDS011;11039;50.028;19.938;2023-02-15T15:47:01;27.45;;;18.90;;
21754;SDS011;11039;50.028;19.938;2023-02-15T15:49:31;24.08;;;18.92;;
21754;SDS011;11039;50.028;19.938;2023-02-15T15:52:01;25.40;;;19.90;;
21754;SDS011;11039;50.028;19.938;2023-02-15T15:54:28;24.80;;;19.27;;
21754;SDS011;11039;50.028;19.938;2023-02-15T15:57:01;22.02;;;16.88;;
21754;SDS011;11039;50.028;19.938;2023-02-15T15:59:29;25.33;;;17.52;;
21754;SDS011;11039;50.028;19.938;2023-02-15T16:01:56;23.73;;;16.25;;
21754;SDS011;11039;50.028;19.938;2023-02-15T16:04:29;22.98;;;15.60;;
21754;SDS011;11039;50.028;19.938;2023-02-15T16:06:56;23.75;;;16.52;;
21754;SDS011;11039;50.028;19.938;2023-02-15T16:09:24;21.73;;;16.13;;
21754;SDS011;11039;50.028;19.938;2023-02-15T16:11:51;23.52;;;16.00;;
21754;SDS011;11039;50.028;19.938;2023-02-15T16:14:29;23.52;;;15.57;;
21754;SDS011;11039;50.028;19.938;2023-02-15T16:16:57;22.77;;;16.35;;
21754;SDS011;11039;50.028;19.938;2023-02-15T16:19:25;19.83;;;15.02;;
21754;SDS011;11039;50.028;19.938;2023-02-15T16:21:52;19.38;;;15.02;;
21754;SDS011;11039;50.028;19.938;2023-02-15T16:29:17;19.63;;;14.60;;
21754;SDS011;11039;50.028;19.938;2023-02-15T16:31:56;19.40;;;14.05;;
21754;SDS011;11039;50.028;19.938;2023-02-15T16:34:22;19.58;;;14.73;;
21754;SDS011;11039;50.028;19.938;2023-02-15T16:36:48;17.10;;;13.35;;
21754;SDS011;11039;50.028;19.938;2023-02-15T16:39:19;17.20;;;13.73;;
21754;SDS011;11039;50.028;19.938;2023-02-15T16:41:45;18.73;;;13.25;;
21754;SDS011;11039;50.028;19.938;2023-02-15T16:44:18;16.67;;;13.95;;
21754;SDS011;11039;50.028;19.938;2023-02-15T16:46:46;21.92;;;17.65;;
21754;SDS011;11039;50.028;19.938;2023-02-15T16:49:20;16.83;;;14.52;;
21754;SDS011;11039;50.028;19.938;2023-02-15T16:51:53;18.65;;;15.18;;
21754;SDS011;11039;50.028;19.938;2023-02-15T16:54:21;17.70;;;14.70;;
21754;SDS011;11039;50.028;19.938;2023-02-15T16:56:47;15.75;;;13.90;;